sensor_id;sensor_type;location;lat;lon;timestamp;P1;durP1;ratioP1;P2;durP2;ratioP2
9156;SDS011;4613;48.392;9.998;2023-03-23T00:01:56;2.10;;;1.90;;
9156;SDS011;4613;48.392;9.998;2023-03-23T00:04:45;3.27;;;2.10;;
9156;SDS011;4613;48.392;9.998;2023-03-23T00:07:37;2.30;;;2.10;;
9156;SDS011;4613;48.392;9.998;2023-03-23T00:10:26;2.20;;;2.00;;
9156;SDS011;4613;48.392;9.998;2023-03-23T00:13:15;3.43;;;1.90;;
9156;SDS011;4613;48.392;9.998;2023-03-23T00:16:08;2.30;;;2.00;;
9156;SDS011;4613;48.392;9.998;2023-03-23T00:19:09;2.63;;;2.03;;
9156;SDS011;4613;48.392;9.998;2023-03-23T00:22:03;3.90;;;1.80;;
9156;SDS011;4613;48.392;9.998;2023-03-23T00:24:52;3.00;;;2.13;;
9156;SDS011;4613;48.392;9.998;2023-03-23T00:27:42;4.67;;;2.60;;
9156;SDS011;4613;48.392;9.998;2023-03-23T00:30:34;2.93;;;2.50;;
9156;SDS011;4613;48.392;9.998;2023-03-23T00:33:24;2.33;;;1.93;;
9156;SDS011;4613;48.392;9.998;2023-03-23T00:36:15;3.33;;;2.10;;
9156;SDS011;4613;48.392;9.998;2023-03-23T00:39:04;2.70;;;2.37;;
9156;SDS011;4613;48.392;9.998;2023-03-23T00:41:53;2.30;;;2.10;;
9156;SDS011;4613;48.392;9.998;2023-03-23T00:44:49;3.50;;;2.20;;
9156;SDS011;4613;48.392;9.998;2023-03-23T00:47:40;3.07;;;2.47;;
9156;SDS011;4613;48.392;9.998;2023-03-23T00:50:35;2.30;;;2.10;;
9156;SDS011;4613;48.392;9.998;2023-03-23T00:53:24;3.17;;;2.20;;
9156;SDS011;4613;48.392;9.998;2023-03-23T00:56:17;2.10;;;1.90;;
9156;SDS011;4613;48.392;9.998;2023-03-23T00:59:06;3.13;;;2.30;;
9156;SDS011;4613;48.392;9.998;2023-03-23T01:01:56;2.60;;;2.30;;
9156;SDS011;4613;48.392;9.998;2023-03-23T01:04:45;2.63;;;2.03;;
9156;SDS011;4613;48.392;9.998;2023-03-23T01:07:35;4.33;;;2.20;;
9156;SDS011;4613;48.392;9.998;2023-03-23T01:10:24;3.47;;;2.10;;
9156;SDS011;4613;48.392;9.998;2023-03-23T01:13:15;3.13;;;2.30;;
9156;SDS011;4613;48.392;9.998;2023-03-23T01:16:05;3.37;;;2.23;;
9156;SDS011;4613;48.392;9.998;2023-03-23T01:18:54;2.13;;;1.90;;
9156;SDS011;4613;48.392;9.998;2023-03-23T01:21:44;5.23;;;2.30;;
9156;SDS011;4613;48.392;9.998;2023-03-23T01:24:33;3.50;;;2.13;;
9156;SDS011;4613;48.392;9.998;2023-03-23T01:27:23;2.47;;;2.20;;
9156;SDS011;4613;48.392;9.998;2023-03-23T01:30:12;2.53;;;2.33;;
9156;SDS011;4613;48.392;9.998;2023-03-23T01:33:03;2.57;;;2.10;;
9156;SDS011;4613;48.392;9.998;2023-03-23T01:35:52;2.20;;;2.00;;
9156;SDS011;4613;48.392;9.998;2023-03-23T01:38:44;2.90;;;2.23;;
9156;SDS011;4613;48.392;9.998;2023-03-23T01:41:35;2.20;;;2.00;;
9156;SDS011;4613;48.392;9.998;2023-03-23T01:47:26;3.87;;;2.40;;
9156;SDS011;4613;48.392;9.998;2023-03-23T01:50:24;2.63;;;2.10;;
9156;SDS011;4613;48.392;9.998;2023-03-23T01:53:16;2.23;;;2.00;;
9156;SDS011;4613;48.392;9.998;2023-03-23T01:56:09;3.03;;;1.90;;
9156;SDS011;4613;48.392;9.998;2023-03-23T01:59:00;2.53;;;1.97;;
9156;SDS011;4613;48.392;9.998;2023-03-23T02:01:50;2.53;;;2.20;;
9156;SDS011;4613;48.392;9.998;2023-03-23T02:04:41;2.80;;;1.90;;
9156;SDS011;4613;48.392;9.998;2023-03-23T02:07:31;2.50;;;1.90;;
9156;SDS011;4613;48.392;9.998;2023-03-23T02:10:22;2.03;;;1.87;;
9156;SDS011;4613;48.392;9.998;2023-03-23T02:13:11;2.07;;;1.83;;
9156;SDS011;4613;48.392;9.998;2023-03-23T02:19:27;2.70;;;2.07;;
9156;SDS011;4613;48.392;9.998;2023-03-23T02:25:40;2.30;;;1.90;;
9156;SDS011;4613;48.392;9.998;2023-03-23T02:28:54;1.97;;;1.83;;
9156;SDS011;4613;48.392;9.998;2023-03-23T02:39:12;2.80;;;1.73;;
9156;SDS011;4613;48.392;9.998;2023-03-23T02:42:11;2.67;;;2.10;;
9156;SDS011;4613;48.392;9.998;2023-03-23T02:45:07;3.13;;;2.10;;
9156;SDS011;4613;48.392;9.998;2023-03-23T02:47:59;2.33;;;2.00;;
9156;SDS011;4613;48.392;9.998;2023-03-23T02:50:51;2.77;;;2.20;;
9156;SDS011;4613;48.392;9.998;2023-03-23T02:53:42;2.37;;;2.00;;
9156;SDS011;4613;48.392;9.998;2023-03-23T02:56:32;3.77;;;2.40;;
9156;SDS011;4613;48.392;9.998;2023-03-23T02:59:25;2.73;;;2.17;;
9156;SDS011;4613;48.392;9.998;2023-03-23T03:02:19;2.97;;;2.13;;
9156;SDS011;4613;48.392;9.998;2023-03-23T03:11:12;2.53;;;2.27;;
9156;SDS011;4613;48.392;9.998;2023-03-23T03:14:08;2.70;;;2.30;;
9156;SDS011;4613;48.392;9.998;2023-03-23T03:17:04;2.27;;;2.07;;
9156;SDS011;4613;48.392;9.998;2023-03-23T03:20:04;3.33;;;2.27;;
9156;SDS011;4613;48.392;9.998;2023-03-23T03:23:02;2.40;;;2.10;;
9156;SDS011;4613;48.392;9.998;2023-03-23T03:25:54;3.17;;;2.20;;
9156;SDS011;4613;48.392;9.998;2023-03-23T03:28:54;3.00;;;2.10;;
9156;SDS011;4613;48.392;9.998;2023-03-23T03:31:45;2.47;;;2.27;;
9156;SDS011;4613;48.392;9.998;2023-03-23T03:34:36;3.60;;;2.60;;
9156;SDS011;4613;48.392;9.998;2023-03-23T03:37:27;3.13;;;2.27;;
9156;SDS011;4613;48.392;9.998;2023-03-23T03:40:21;2.43;;;2.20;;
9156;SDS011;4613;48.392;9.998;2023-03-23T03:43:12;2.87;;;2.60;;
9156;SDS011;4613;48.392;9.998;2023-03-23T03:46:02;4.00;;;2.50;;
9156;SDS011;4613;48.392;9.998;2023-03-23T03:48:52;2.87;;;2.40;;
9156;SDS011;4613;48.392;9.998;2023-03-23T03:51:43;4.60;;;2.10;;
9156;SDS011;4613;48.392;9.998;2023-03-23T03:54:40;3.73;;;2.53;;
9156;SDS011;4613;48.392;9.998;2023-03-23T03:57:30;2.93;;;1.97;;
9156;SDS011;4613;48.392;9.998;2023-03-23T04:00:55;4.00;;;2.60;;
9156;SDS011;4613;48.392;9.998;2023-03-23T04:03:48;3.20;;;2.33;;
9156;SDS011;4613;48.392;9.998;2023-03-23T04:06:49;2.53;;;2.30;;
9156;SDS011;4613;48.392;9.998;2023-03-23T04:09:40;3.03;;;2.40;;
9156;SDS011;4613;48.392;9.998;2023-03-23T04:12:29;2.50;;;2.00;;
9156;SDS011;4613;48.392;9.998;2023-03-23T04:15:18;2.67;;;2.27;;
9156;SDS011;4613;48.392;9.998;2023-03-23T04:18:10;2.20;;;2.00;;
9156;SDS011;4613;48.392;9.998;2023-03-23T04:21:01;3.33;;;2.57;;
9156;SDS011;4613;48.392;9.998;2023-03-23T04:23:52;3.00;;;2.23;;
9156;SDS011;4613;48.392;9.998;2023-03-23T04:26:42;3.20;;;2.40;;
9156;SDS011;4613;48.392;9.998;2023-03-23T04:29:43;2.40;;;2.20;;
9156;SDS011;4613;48.392;9.998;2023-03-23T04:33:07;2.80;;;2.23;;
9156;SDS011;4613;48.392;9.998;2023-03-23T04:35:57;4.90;;;2.43;;
9156;SDS011;4613;48.392;9.998;2023-03-23T04:38:59;4.27;;;2.90;;
9156;SDS011;4613;48.392;9.998;2023-03-23T04:41:49;3.97;;;2.50;;
9156;SDS011;4613;48.392;9.998;2023-03-23T04:44:46;4.30;;;2.50;;
9156;SDS011;4613;48.392;9.998;2023-03-23T04:47:43;3.57;;;2.70;;
9156;SDS011;4613;48.392;9.998;2023-03-23T04:50:44;5.67;;;3.20;;
9156;SDS011;4613;48.392;9.998;2023-03-23T04:53:45;5.00;;;2.50;;
9156;SDS011;4613;48.392;9.998;2023-03-23T04:56:34;3.40;;;2.67;;
9156;SDS011;4613;48.392;9.998;2023-03-23T04:59:31;2.97;;;2.67;;
9156;SDS011;4613;48.392;9.998;2023-03-23T05:02:46;3.77;;;2.40;;
9156;SDS011;4613;48.392;9.998;2023-03-23T05:05:40;3.37;;;2.37;;
9156;SDS011;4613;48.392;9.998;2023-03-23T05:08:30;3.23;;;1.97;;
9156;SDS011;4613;48.392;9.998;2023-03-23T05:11:21;3.47;;;2.67;;
9156;SDS011;4613;48.392;9.998;2023-03-23T05:14:15;2.90;;;2.17;;
9156;SDS011;4613;48.392;9.998;2023-03-23T05:17:08;2.30;;;2.10;;
9156;SDS011;4613;48.392;9.998;2023-03-23T05:19:58;2.93;;;2.27;;
9156;SDS011;4613;48.392;9.998;2023-03-23T05:22:57;5.33;;;2.67;;
9156;SDS011;4613;48.392;9.998;2023-03-23T05:25:53;3.23;;;2.30;;
9156;SDS011;4613;48.392;9.998;2023-03-23T05:28:44;3.00;;;2.37;;
9156;SDS011;4613;48.392;9.998;2023-03-23T05:31:40;3.17;;;2.33;;
9156;SDS011;4613;48.392;9.998;2023-03-23T05:34:30;2.20;;;2.00;;
9156;SDS011;4613;48.392;9.998;2023-03-23T05:37:23;4.17;;;2.57;;
9156;SDS011;4613;48.392;9.998;2023-03-23T05:40:21;4.17;;;2.47;;
9156;SDS011;4613;48.392;9.998;2023-03-23T05:43:17;3.47;;;2.20;;
9156;SDS011;4613;48.392;9.998;2023-03-23T05:46:22;3.47;;;2.20;;
9156;SDS011;4613;48.392;9.998;2023-03-23T05:49:13;2.20;;;2.00;;
9156;SDS011;4613;48.392;9.998;2023-03-23T05:52:05;2.40;;;1.90;;
9156;SDS011;4613;48.392;9.998;2023-03-23T05:54:55;2.87;;;2.10;;
9156;SDS011;4613;48.392;9.998;2023-03-23T05:57:46;3.37;;;2.20;;
9156;SDS011;4613;48.392;9.998;2023-03-23T06:00:49;2.20;;;1.80;;
9156;SDS011;4613;48.392;9.998;2023-03-23T06:03:44;2.40;;;2.00;;
9156;SDS011;4613;48.392;9.998;2023-03-23T06:06:45;2.50;;;2.10;;
9156;SDS011;4613;48.392;9.998;2023-03-23T06:09:37;2.40;;;2.10;;
9156;SDS011;4613;48.392;9.998;2023-03-23T06:12:26;3.03;;;2.20;;
9156;SDS011;4613;48.392;9.998;2023-03-23T06:15:35;3.77;;;2.20;;
9156;SDS011;4613;48.392;9.998;2023-03-23T06:18:24;3.67;;;2.70;;
9156;SDS011;4613;48.392;9.998;2023-03-23T06:21:31;4.23;;;2.73;;
9156;SDS011;4613;48.392;9.998;2023-03-23T06:24:44;3.40;;;2.20;;
9156;SDS011;4613;48.392;9.998;2023-03-23T06:27:38;2.93;;;2.37;;
9156;SDS011;4613;48.392;9.998;2023-03-23T06:30:28;2.53;;;2.33;;
9156;SDS011;4613;48.392;9.998;2023-03-23T06:33:19;3.87;;;2.33;;
9156;SDS011;4613;48.392;9.998;2023-03-23T06:36:28;4.03;;;2.43;;
9156;SDS011;4613;48.392;9.998;2023-03-23T06:39:33;4.17;;;2.23;;
9156;SDS011;4613;48.392;9.998;2023-03-23T06:42:42;3.20;;;2.30;;
9156;SDS011;4613;48.392;9.998;2023-03-23T06:45:54;4.03;;;2.40;;
9156;SDS011;4613;48.392;9.998;2023-03-23T06:49:02;3.97;;;2.30;;
9156;SDS011;4613;48.392;9.998;2023-03-23T06:52:00;5.20;;;3.13;;
9156;SDS011;4613;48.392;9.998;2023-03-23T06:54:52;2.73;;;2.33;;
9156;SDS011;4613;48.392;9.998;2023-03-23T06:57:49;4.20;;;2.87;;
9156;SDS011;4613;48.392;9.998;2023-03-23T07:00:39;5.23;;;2.57;;
9156;SDS011;4613;48.392;9.998;2023-03-23T07:03:31;2.63;;;2.20;;
9156;SDS011;4613;48.392;9.998;2023-03-23T07:06:22;5.50;;;2.20;;
9156;SDS011;4613;48.392;9.998;2023-03-23T07:09:18;3.53;;;2.57;;
9156;SDS011;4613;48.392;9.998;2023-03-23T07:12:08;2.30;;;2.10;;
9156;SDS011;4613;48.392;9.998;2023-03-23T07:15:04;2.57;;;2.23;;
9156;SDS011;4613;48.392;9.998;2023-03-23T07:17:54;3.43;;;2.43;;
9156;SDS011;4613;48.392;9.998;2023-03-23T07:20:53;2.00;;;1.80;;
9156;SDS011;4613;48.392;9.998;2023-03-23T07:23:46;2.73;;;2.20;;
9156;SDS011;4613;48.392;9.998;2023-03-23T07:26:42;3.23;;;2.00;;
9156;SDS011;4613;48.392;9.998;2023-03-23T07:29:32;2.97;;;2.30;;
9156;SDS011;4613;48.392;9.998;2023-03-23T07:32:31;2.57;;;2.10;;
9156;SDS011;4613;48.392;9.998;2023-03-23T07:35:20;2.20;;;2.00;;
9156;SDS011;4613;48.392;9.998;2023-03-23T07:38:26;1.93;;;1.80;;
9156;SDS011;4613;48.392;9.998;2023-03-23T07:41:16;3.10;;;2.20;;
9156;SDS011;4613;48.392;9.998;2023-03-23T07:44:07;2.40;;;2.17;;
9156;SDS011;4613;48.392;9.998;2023-03-23T07:46:58;2.47;;;1.87;;
9156;SDS011;4613;48.392;9.998;2023-03-23T07:49:54;2.10;;;1.90;;
9156;SDS011;4613;48.392;9.998;2023-03-23T07:52:53;1.70;;;1.60;;
9156;SDS011;4613;48.392;9.998;2023-03-23T07:55:44;2.30;;;1.80;;
9156;SDS011;4613;48.392;9.998;2023-03-23T07:58:52;2.97;;;2.10;;
9156;SDS011;4613;48.392;9.998;2023-03-23T08:01:42;2.27;;;1.83;;
9156;SDS011;4613;48.392;9.998;2023-03-23T08:04:50;2.37;;;1.80;;
9156;SDS011;4613;48.392;9.998;2023-03-23T08:08:09;2.43;;;2.00;;
9156;SDS011;4613;48.392;9.998;2023-03-23T08:11:30;3.57;;;1.80;;
9156;SDS011;4613;48.392;9.998;2023-03-23T08:14:40;1.60;;;1.50;;
9156;SDS011;4613;48.392;9.998;2023-03-23T08:17:55;1.63;;;1.53;;
9156;SDS011;4613;48.392;9.998;2023-03-23T08:21:13;3.13;;;1.60;;
9156;SDS011;4613;48.392;9.998;2023-03-23T08:24:18;1.97;;;1.50;;
9156;SDS011;4613;48.392;9.998;2023-03-23T08:27:15;1.60;;;1.50;;
9156;SDS011;4613;48.392;9.998;2023-03-23T08:30:16;3.80;;;1.97;;
9156;SDS011;4613;48.392;9.998;2023-03-23T08:33:36;1.63;;;1.53;;
9156;SDS011;4613;48.392;9.998;2023-03-23T08:36:59;1.87;;;1.67;;
9156;SDS011;4613;48.392;9.998;2023-03-23T08:40:11;2.20;;;1.93;;
9156;SDS011;4613;48.392;9.998;2023-03-23T08:43:41;2.00;;;1.63;;
9156;SDS011;4613;48.392;9.998;2023-03-23T08:46:59;3.27;;;2.17;;
9156;SDS011;4613;48.392;9.998;2023-03-23T08:50:04;2.20;;;1.67;;
9156;SDS011;4613;48.392;9.998;2023-03-23T08:53:21;1.83;;;1.67;;
9156;SDS011;4613;48.392;9.998;2023-03-23T08:56:30;1.73;;;1.63;;
9156;SDS011;4613;48.392;9.998;2023-03-23T08:59:34;2.57;;;2.03;;
9156;SDS011;4613;48.392;9.998;2023-03-23T09:02:28;2.23;;;1.73;;
9156;SDS011;4613;48.392;9.998;2023-03-23T09:05:28;6.40;;;1.80;;
9156;SDS011;4613;48.392;9.998;2023-03-23T09:08:32;2.63;;;1.90;;
9156;SDS011;4613;48.392;9.998;2023-03-23T09:11:22;2.70;;;2.10;;
9156;SDS011;4613;48.392;9.998;2023-03-23T09:14:20;3.03;;;1.80;;
9156;SDS011;4613;48.392;9.998;2023-03-23T09:17:09;2.50;;;2.13;;
9156;SDS011;4613;48.392;9.998;2023-03-23T09:19:59;2.10;;;1.90;;
9156;SDS011;4613;48.392;9.998;2023-03-23T09:22:50;1.57;;;1.47;;
9156;SDS011;4613;48.392;9.998;2023-03-23T09:25:40;1.63;;;1.50;;
9156;SDS011;4613;48.392;9.998;2023-03-23T09:28:29;4.83;;;1.80;;
9156;SDS011;4613;48.392;9.998;2023-03-23T09:31:19;1.87;;;1.60;;
9156;SDS011;4613;48.392;9.998;2023-03-23T09:34:09;2.03;;;1.70;;
9156;SDS011;4613;48.392;9.998;2023-03-23T09:36:58;1.87;;;1.77;;
9156;SDS011;4613;48.392;9.998;2023-03-23T09:39:48;1.70;;;1.50;;
9156;SDS011;4613;48.392;9.998;2023-03-23T09:45:39;1.80;;;1.70;;
9156;SDS011;4613;48.392;9.998;2023-03-23T09:51:59;1.93;;;1.70;;
9156;SDS011;4613;48.392;9.998;2023-03-23T09:54:54;1.70;;;1.60;;
9156;SDS011;4613;48.392;9.998;2023-03-23T09:57:55;2.10;;;1.80;;
9156;SDS011;4613;48.392;9.998;2023-03-23T10:01:04;1.60;;;1.50;;
9156;SDS011;4613;48.392;9.998;2023-03-23T10:07:26;1.47;;;1.30;;
9156;SDS011;4613;48.392;9.998;2023-03-23T10:10:17;1.93;;;1.53;;
9156;SDS011;4613;48.392;9.998;2023-03-23T10:13:14;1.90;;;1.73;;
9156;SDS011;4613;48.392;9.998;2023-03-23T10:16:18;2.03;;;1.50;;
9156;SDS011;4613;48.392;9.998;2023-03-23T10:22:09;1.73;;;1.63;;
9156;SDS011;4613;48.392;9.998;2023-03-23T10:25:03;2.23;;;1.67;;
9156;SDS011;4613;48.392;9.998;2023-03-23T10:28:13;2.90;;;1.87;;
9156;SDS011;4613;48.392;9.998;2023-03-23T10:31:29;1.70;;;1.60;;
9156;SDS011;4613;48.392;9.998;2023-03-23T10:37:21;2.53;;;1.90;;
9156;SDS011;4613;48.392;9.998;2023-03-23T10:40:18;1.80;;;1.70;;
9156;SDS011;4613;48.392;9.998;2023-03-23T10:43:12;2.40;;;2.00;;
9156;SDS011;4613;48.392;9.998;2023-03-23T10:46:02;1.87;;;1.73;;
9156;SDS011;4613;48.392;9.998;2023-03-23T10:49:12;1.77;;;1.53;;
9156;SDS011;4613;48.392;9.998;2023-03-23T10:52:36;2.07;;;1.40;;
9156;SDS011;4613;48.392;9.998;2023-03-23T10:55:39;1.40;;;1.30;;
9156;SDS011;4613;48.392;9.998;2023-03-23T10:58:31;1.60;;;1.50;;
9156;SDS011;4613;48.392;9.998;2023-03-23T11:01:31;1.50;;;1.40;;
9156;SDS011;4613;48.392;9.998;2023-03-23T11:04:23;1.50;;;1.40;;
9156;SDS011;4613;48.392;9.998;2023-03-23T11:07:18;2.17;;;1.47;;
9156;SDS011;4613;48.392;9.998;2023-03-23T11:10:18;1.53;;;1.43;;
9156;SDS011;4613;48.392;9.998;2023-03-23T11:13:16;2.80;;;1.60;;
9156;SDS011;4613;48.392;9.998;2023-03-23T11:16:08;1.43;;;1.33;;
9156;SDS011;4613;48.392;9.998;2023-03-23T11:18:58;1.70;;;1.60;;
9156;SDS011;4613;48.392;9.998;2023-03-23T11:21:51;1.63;;;1.50;;
9156;SDS011;4613;48.392;9.998;2023-03-23T11:24:44;1.60;;;1.50;;
9156;SDS011;4613;48.392;9.998;2023-03-23T11:27:37;1.40;;;1.30;;
9156;SDS011;4613;48.392;9.998;2023-03-23T11:30:29;2.03;;;1.33;;
9156;SDS011;4613;48.392;9.998;2023-03-23T11:33:19;2.00;;;1.47;;
9156;SDS011;4613;48.392;9.998;2023-03-23T11:36:09;1.53;;;1.40;;
9156;SDS011;4613;48.392;9.998;2023-03-23T11:39:01;1.40;;;1.10;;
9156;SDS011;4613;48.392;9.998;2023-03-23T11:41:54;3.10;;;1.20;;
9156;SDS011;4613;48.392;9.998;2023-03-23T11:44:46;2.23;;;1.80;;
9156;SDS011;4613;48.392;9.998;2023-03-23T11:47:37;2.77;;;2.47;;
9156;SDS011;4613;48.392;9.998;2023-03-23T11:50:35;2.10;;;1.90;;
9156;SDS011;4613;48.392;9.998;2023-03-23T11:56:57;1.10;;;1.07;;
9156;SDS011;4613;48.392;9.998;2023-03-23T11:59:46;1.13;;;1.00;;
9156;SDS011;4613;48.392;9.998;2023-03-23T12:02:39;0.97;;;0.97;;
9156;SDS011;4613;48.392;9.998;2023-03-23T12:06:10;2.07;;;0.90;;
9156;SDS011;4613;48.392;9.998;2023-03-23T12:09:06;0.90;;;0.90;;
9156;SDS011;4613;48.392;9.998;2023-03-23T12:12:00;0.80;;;0.80;;
9156;SDS011;4613;48.392;9.998;2023-03-23T12:18:33;1.07;;;0.97;;
9156;SDS011;4613;48.392;9.998;2023-03-23T12:28:11;2.10;;;1.90;;
9156;SDS011;4613;48.392;9.998;2023-03-23T12:40:41;1.60;;;1.20;;
9156;SDS011;4613;48.392;9.998;2023-03-23T12:46:49;1.30;;;1.20;;
9156;SDS011;4613;48.392;9.998;2023-03-23T12:49:50;1.07;;;1.07;;
9156;SDS011;4613;48.392;9.998;2023-03-23T12:53:05;1.40;;;1.30;;
9156;SDS011;4613;48.392;9.998;2023-03-23T12:59:33;1.33;;;1.10;;
9156;SDS011;4613;48.392;9.998;2023-03-23T13:05:53;1.20;;;1.10;;
9156;SDS011;4613;48.392;9.998;2023-03-23T13:08:52;1.77;;;1.17;;
9156;SDS011;4613;48.392;9.998;2023-03-23T13:11:45;1.60;;;0.90;;
9156;SDS011;4613;48.392;9.998;2023-03-23T13:14:41;1.40;;;1.10;;
9156;SDS011;4613;48.392;9.998;2023-03-23T13:18:04;2.20;;;1.10;;
9156;SDS011;4613;48.392;9.998;2023-03-23T13:21:00;1.17;;;1.10;;
9156;SDS011;4613;48.392;9.998;2023-03-23T13:23:56;1.20;;;1.10;;
9156;SDS011;4613;48.392;9.998;2023-03-23T13:26:51;1.70;;;1.20;;
9156;SDS011;4613;48.392;9.998;2023-03-23T13:29:45;1.90;;;1.27;;
9156;SDS011;4613;48.392;9.998;2023-03-23T13:32:38;1.90;;;1.30;;
9156;SDS011;4613;48.392;9.998;2023-03-23T13:35:33;1.30;;;1.20;;
9156;SDS011;4613;48.392;9.998;2023-03-23T13:38:26;1.73;;;1.50;;
9156;SDS011;4613;48.392;9.998;2023-03-23T13:41:24;1.20;;;1.20;;
9156;SDS011;4613;48.392;9.998;2023-03-23T13:44:17;1.33;;;1.23;;
9156;SDS011;4613;48.392;9.998;2023-03-23T13:53:13;1.50;;;1.40;;
9156;SDS011;4613;48.392;9.998;2023-03-23T13:56:32;1.67;;;1.40;;
9156;SDS011;4613;48.392;9.998;2023-03-23T14:05:48;1.57;;;1.37;;
9156;SDS011;4613;48.392;9.998;2023-03-23T14:09:16;2.27;;;1.50;;
9156;SDS011;4613;48.392;9.998;2023-03-23T14:12:19;1.40;;;1.30;;
9156;SDS011;4613;48.392;9.998;2023-03-23T14:15:12;1.70;;;1.43;;
9156;SDS011;4613;48.392;9.998;2023-03-23T14:18:03;1.83;;;1.20;;
9156;SDS011;4613;48.392;9.998;2023-03-23T14:20:53;1.30;;;1.20;;
9156;SDS011;4613;48.392;9.998;2023-03-23T14:23:46;1.20;;;1.10;;
9156;SDS011;4613;48.392;9.998;2023-03-23T14:26:35;2.57;;;1.33;;
9156;SDS011;4613;48.392;9.998;2023-03-23T14:29:24;1.40;;;1.30;;
9156;SDS011;4613;48.392;9.998;2023-03-23T14:32:18;1.37;;;1.23;;
9156;SDS011;4613;48.392;9.998;2023-03-23T14:35:36;4.50;;;1.20;;
9156;SDS011;4613;48.392;9.998;2023-03-23T14:38:25;1.40;;;1.30;;
9156;SDS011;4613;48.392;9.998;2023-03-23T14:41:20;3.10;;;1.33;;
9156;SDS011;4613;48.392;9.998;2023-03-23T14:44:14;1.30;;;1.20;;
9156;SDS011;4613;48.392;9.998;2023-03-23T14:47:09;1.57;;;1.47;;
9156;SDS011;4613;48.392;9.998;2023-03-23T14:50:06;4.10;;;1.40;;
9156;SDS011;4613;48.392;9.998;2023-03-23T14:53:18;1.20;;;1.10;;
9156;SDS011;4613;48.392;9.998;2023-03-23T14:56:20;0.93;;;0.93;;
9156;SDS011;4613;48.392;9.998;2023-03-23T14:59:12;4.33;;;1.40;;
9156;SDS011;4613;48.392;9.998;2023-03-23T15:02:01;3.50;;;1.70;;
9156;SDS011;4613;48.392;9.998;2023-03-23T15:04:54;2.57;;;1.90;;
9156;SDS011;4613;48.392;9.998;2023-03-23T15:07:47;2.93;;;1.50;;
9156;SDS011;4613;48.392;9.998;2023-03-23T15:10:41;1.50;;;1.40;;
9156;SDS011;4613;48.392;9.998;2023-03-23T15:13:31;8.93;;;3.60;;
9156;SDS011;4613;48.392;9.998;2023-03-23T15:16:23;2.40;;;1.60;;
9156;SDS011;4613;48.392;9.998;2023-03-23T15:22:27;1.67;;;1.50;;
9156;SDS011;4613;48.392;9.998;2023-03-23T15:28:30;2.87;;;1.60;;
9156;SDS011;4613;48.392;9.998;2023-03-23T15:31:23;1.40;;;1.30;;
9156;SDS011;4613;48.392;9.998;2023-03-23T15:34:16;1.90;;;1.70;;
9156;SDS011;4613;48.392;9.998;2023-03-23T15:37:25;1.40;;;1.30;;
9156;SDS011;4613;48.392;9.998;2023-03-23T15:40:22;2.10;;;1.33;;
9156;SDS011;4613;48.392;9.998;2023-03-23T15:43:20;1.90;;;1.40;;
9156;SDS011;4613;48.392;9.998;2023-03-23T15:49:08;1.87;;;1.50;;
9156;SDS011;4613;48.392;9.998;2023-03-23T15:51:59;2.07;;;1.87;;
9156;SDS011;4613;48.392;9.998;2023-03-23T15:54:48;1.93;;;1.70;;
9156;SDS011;4613;48.392;9.998;2023-03-23T15:57:37;1.60;;;1.50;;
9156;SDS011;4613;48.392;9.998;2023-03-23T16:00:27;1.97;;;1.37;;
9156;SDS011;4613;48.392;9.998;2023-03-23T16:03:18;2.90;;;1.57;;
9156;SDS011;4613;48.392;9.998;2023-03-23T16:06:13;1.63;;;1.50;;
9156;SDS011;4613;48.392;9.998;2023-03-23T16:09:05;1.40;;;1.30;;
9156;SDS011;4613;48.392;9.998;2023-03-23T16:11:55;2.13;;;1.40;;
9156;SDS011;4613;48.392;9.998;2023-03-23T16:14:44;3.37;;;2.10;;
9156;SDS011;4613;48.392;9.998;2023-03-23T16:17:33;1.90;;;1.57;;
9156;SDS011;4613;48.392;9.998;2023-03-23T16:20:23;1.60;;;1.50;;
9156;SDS011;4613;48.392;9.998;2023-03-23T16:23:13;1.90;;;1.70;;
9156;SDS011;4613;48.392;9.998;2023-03-23T16:26:02;1.87;;;1.33;;
9156;SDS011;4613;48.392;9.998;2023-03-23T16:28:52;1.73;;;1.63;;
9156;SDS011;4613;48.392;9.998;2023-03-23T16:31:42;1.77;;;1.57;;
9156;SDS011;4613;48.392;9.998;2023-03-23T16:34:31;2.00;;;1.80;;
9156;SDS011;4613;48.392;9.998;2023-03-23T16:37:23;2.50;;;1.53;;
9156;SDS011;4613;48.392;9.998;2023-03-23T16:40:12;1.87;;;1.67;;
9156;SDS011;4613;48.392;9.998;2023-03-23T16:43:02;2.97;;;1.83;;
9156;SDS011;4613;48.392;9.998;2023-03-23T16:45:54;2.77;;;1.77;;
9156;SDS011;4613;48.392;9.998;2023-03-23T16:48:44;4.70;;;2.60;;
9156;SDS011;4613;48.392;9.998;2023-03-23T16:51:34;4.20;;;2.00;;
9156;SDS011;4613;48.392;9.998;2023-03-23T16:54:23;3.27;;;1.80;;
9156;SDS011;4613;48.392;9.998;2023-03-23T16:57:12;2.23;;;1.80;;
9156;SDS011;4613;48.392;9.998;2023-03-23T17:00:03;1.57;;;1.47;;
9156;SDS011;4613;48.392;9.998;2023-03-23T17:02:55;2.80;;;1.67;;
9156;SDS011;4613;48.392;9.998;2023-03-23T17:05:46;1.83;;;1.30;;
9156;SDS011;4613;48.392;9.998;2023-03-23T17:08:37;1.53;;;1.40;;
9156;SDS011;4613;48.392;9.998;2023-03-23T17:11:30;1.60;;;1.50;;
9156;SDS011;4613;48.392;9.998;2023-03-23T17:14:20;1.73;;;1.40;;
9156;SDS011;4613;48.392;9.998;2023-03-23T17:17:09;2.20;;;1.83;;
9156;SDS011;4613;48.392;9.998;2023-03-23T17:19:58;2.17;;;1.60;;
9156;SDS011;4613;48.392;9.998;2023-03-23T17:22:49;2.70;;;1.70;;
9156;SDS011;4613;48.392;9.998;2023-03-23T17:25:39;4.10;;;2.03;;
9156;SDS011;4613;48.392;9.998;2023-03-23T17:28:29;2.27;;;2.07;;
9156;SDS011;4613;48.392;9.998;2023-03-23T17:31:17;2.63;;;1.80;;
9156;SDS011;4613;48.392;9.998;2023-03-23T17:34:07;1.70;;;1.60;;
9156;SDS011;4613;48.392;9.998;2023-03-23T17:36:56;1.70;;;1.50;;
9156;SDS011;4613;48.392;9.998;2023-03-23T17:39:45;3.00;;;1.70;;
9156;SDS011;4613;48.392;9.998;2023-03-23T17:42:36;2.63;;;1.70;;
9156;SDS011;4613;48.392;9.998;2023-03-23T17:45:26;1.90;;;1.70;;
9156;SDS011;4613;48.392;9.998;2023-03-23T17:48:15;4.30;;;1.97;;
9156;SDS011;4613;48.392;9.998;2023-03-23T17:51:04;3.10;;;1.90;;
9156;SDS011;4613;48.392;9.998;2023-03-23T17:53:54;2.07;;;1.73;;
9156;SDS011;4613;48.392;9.998;2023-03-23T17:56:43;2.17;;;1.97;;
9156;SDS011;4613;48.392;9.998;2023-03-23T17:59:33;2.40;;;1.73;;
9156;SDS011;4613;48.392;9.998;2023-03-23T18:02:23;2.03;;;1.90;;
9156;SDS011;4613;48.392;9.998;2023-03-23T18:05:12;3.33;;;1.77;;
9156;SDS011;4613;48.392;9.998;2023-03-23T18:08:02;2.20;;;1.80;;
9156;SDS011;4613;48.392;9.998;2023-03-23T18:10:56;1.80;;;1.70;;
9156;SDS011;4613;48.392;9.998;2023-03-23T18:13:46;2.00;;;1.80;;
9156;SDS011;4613;48.392;9.998;2023-03-23T18:16:35;1.97;;;1.80;;
9156;SDS011;4613;48.392;9.998;2023-03-23T18:19:25;2.93;;;1.73;;
9156;SDS011;4613;48.392;9.998;2023-03-23T18:22:16;1.60;;;1.50;;
9156;SDS011;4613;48.392;9.998;2023-03-23T18:25:06;1.93;;;1.83;;
9156;SDS011;4613;48.392;9.998;2023-03-23T18:27:55;2.13;;;1.50;;
9156;SDS011;4613;48.392;9.998;2023-03-23T18:30:45;2.13;;;1.70;;
9156;SDS011;4613;48.392;9.998;2023-03-23T18:33:37;2.20;;;1.83;;
9156;SDS011;4613;48.392;9.998;2023-03-23T18:36:29;2.30;;;1.83;;
9156;SDS011;4613;48.392;9.998;2023-03-23T18:39:19;2.47;;;1.97;;
9156;SDS011;4613;48.392;9.998;2023-03-23T18:42:09;1.63;;;1.53;;
9156;SDS011;4613;48.392;9.998;2023-03-23T18:44:59;1.90;;;1.70;;
9156;SDS011;4613;48.392;9.998;2023-03-23T18:47:48;2.07;;;1.87;;
9156;SDS011;4613;48.392;9.998;2023-03-23T18:50:38;1.80;;;1.60;;
9156;SDS011;4613;48.392;9.998;2023-03-23T18:53:28;2.03;;;1.43;;
9156;SDS011;4613;48.392;9.998;2023-03-23T18:56:17;2.13;;;1.80;;
9156;SDS011;4613;48.392;9.998;2023-03-23T18:59:07;2.90;;;1.77;;
9156;SDS011;4613;48.392;9.998;2023-03-23T19:01:56;2.70;;;1.80;;
9156;SDS011;4613;48.392;9.998;2023-03-23T19:04:46;1.70;;;1.60;;
9156;SDS011;4613;48.392;9.998;2023-03-23T19:07:36;1.50;;;1.40;;
9156;SDS011;4613;48.392;9.998;2023-03-23T19:10:26;2.10;;;1.73;;
9156;SDS011;4613;48.392;9.998;2023-03-23T19:13:15;2.17;;;1.90;;
9156;SDS011;4613;48.392;9.998;2023-03-23T19:16:06;2.93;;;1.70;;
9156;SDS011;4613;48.392;9.998;2023-03-23T19:18:55;1.50;;;1.40;;
9156;SDS011;4613;48.392;9.998;2023-03-23T19:21:44;2.10;;;1.90;;
9156;SDS011;4613;48.392;9.998;2023-03-23T19:24:34;2.60;;;1.80;;
9156;SDS011;4613;48.392;9.998;2023-03-23T19:27:24;2.37;;;1.83;;
9156;SDS011;4613;48.392;9.998;2023-03-23T19:30:13;2.33;;;1.80;;
9156;SDS011;4613;48.392;9.998;2023-03-23T19:33:03;3.13;;;1.90;;
9156;SDS011;4613;48.392;9.998;2023-03-23T19:35:52;2.27;;;2.00;;
9156;SDS011;4613;48.392;9.998;2023-03-23T19:38:42;1.60;;;1.50;;
9156;SDS011;4613;48.392;9.998;2023-03-23T19:41:32;3.03;;;2.10;;